Time;durP1;ratioP1;P1;durP2;ratioP2;P2;SDS_P1;SDS_P2;PMS_P1;PMS_P2;Temp;Humidity;BMP_temperature;BMP_pressure;BME280_temperature;BME280_humidity;BME280_pressure;Samples;Min_cycle;Max_cycle;Signal;HPM_P1;HPM_P2
2022/06/16 00:01:53;;;;;;;17.58;6.13;;;27.80;64.50;;;;;;5043083;28;20083;-62
2022/06/16 00:04:19;;;;;;;9.73;5.63;;;27.70;64.50;;;;;;5040248;28;20143;-62
2022/06/16 00:06:45;;;;;;;8.52;5.85;;;27.70;64.60;;;;;;5040501;28;20440;-62
2022/06/16 00:09:10;;;;;;;10.60;5.60;;;27.70;64.70;;;;;;5022406;28;20036;-62
2022/06/16 00:11:36;;;;;;;11.95;5.80;;;27.60;64.70;;;;;;5008693;28;20017;-62
2022/06/16 00:14:01;;;;;;;11.43;5.70;;;27.50;64.70;;;;;;5042710;28;20108;-63
2022/06/16 00:16:27;;;;;;;11.52;5.80;;;27.60;64.80;;;;;;5038744;28;20037;-62
2022/06/16 00:18:52;;;;;;;10.05;5.35;;;27.50;64.70;;;;;;5010528;28;20468;-62
2022/06/16 00:21:18;;;;;;;11.25;5.82;;;27.50;64.80;;;;;;5024207;28;20121;-62
2022/06/16 00:23:43;;;;;;;12.40;5.80;;;27.50;64.80;;;;;;5042517;28;20116;-62
2022/06/16 00:26:11;;;;;;;13.13;5.60;;;27.40;64.70;;;;;;5024558;28;20045;-62
2022/06/16 00:28:37;;;;;;;14.07;6.53;;;27.40;64.80;;;;;;5006256;28;20124;-62
2022/06/16 00:31:03;;;;;;;11.93;6.43;;;27.40;64.80;;;;;;5005765;28;20112;-62
2022/06/16 00:33:29;;;;;;;12.50;6.43;;;27.40;64.90;;;;;;5022653;28;20148;-62
2022/06/16 00:35:55;;;;;;;12.43;7.25;;;27.40;64.90;;;;;;5024766;28;20124;-62
2022/06/16 00:38:20;;;;;;;13.38;6.78;;;27.30;64.80;;;;;;5040633;28;20568;-62
2022/06/16 00:40:46;;;;;;;14.05;6.90;;;27.30;65.00;;;;;;5038338;28;20037;-61
2022/06/16 00:43:11;;;;;;;10.65;6.82;;;27.30;65.00;;;;;;5005506;28;20578;-62
2022/06/16 00:45:55;;;;;;;11.00;7.00;;;27.20;65.00;;;;;;5021853;28;20480;-62
2022/06/16 00:48:48;;;;;;;12.02;7.50;;;27.20;65.10;;;;;;5024536;28;20582;-62
2022/06/16 00:51:35;;;;;;;13.65;7.65;;;27.20;65.20;;;;;;5041844;28;20087;-61
2022/06/16 00:54:05;;;;;;;13.20;7.53;;;27.20;65.20;;;;;;5022976;28;20032;-62
2022/06/16 00:56:30;;;;;;;16.55;7.05;;;27.00;65.20;;;;;;5006800;28;20030;-62
2022/06/16 00:58:59;;;;;;;14.63;7.65;;;27.10;65.30;;;;;;5021466;28;20035;-61
2022/06/16 01:01:24;;;;;;;19.70;7.45;;;27.10;65.40;;;;;;5021763;28;20028;-63
2022/06/16 01:06:34;;;;;;;13.98;6.85;;;27.00;65.40;;;;;;5023888;28;20151;-62
2022/06/16 01:09:05;;;;;;;18.90;6.78;;;27.00;65.50;;;;;;5038655;28;20125;-62
2022/06/16 01:15:07;;;;;;;13.73;7.43;;;26.90;65.50;;;;;;5025619;28;20136;-62
2022/06/16 01:17:51;;;;;;;10.07;6.32;;;26.90;65.50;;;;;;5022475;28;20040;-62
2022/06/16 01:20:20;;;;;;;11.10;6.32;;;26.80;65.60;;;;;;5039559;28;20472;-63
2022/06/16 01:22:58;;;;;;;12.20;6.75;;;26.80;65.70;;;;;;5021389;28;20238;-62
2022/06/16 01:25:36;;;;;;;11.35;6.78;;;26.80;65.80;;;;;;5039027;28;20441;-63
2022/06/16 01:28:18;;;;;;;15.40;6.82;;;26.80;65.80;;;;;;5023307;28;20036;-63
2022/06/16 01:30:48;;;;;;;10.48;6.07;;;26.80;65.80;;;;;;5024069;28;20025;-62
2022/06/16 01:33:52;;;;;;;10.18;5.80;;;26.70;65.90;;;;;;5022189;28;20037;-62
2022/06/16 01:36:24;;;;;;;10.60;6.32;;;26.70;65.80;;;;;;5038881;28;20064;-62
2022/06/16 01:38:56;;;;;;;10.80;6.32;;;26.70;65.90;;;;;;5020766;28;20095;-62
2022/06/16 01:41:28;;;;;;;11.90;6.22;;;26.70;66.00;;;;;;5023979;28;20037;-61
2022/06/16 01:44:05;;;;;;;10.13;5.45;;;26.60;65.90;;;;;;5024874;28;20146;-62
2022/06/16 01:46:32;;;;;;;11.25;4.93;;;26.60;65.90;;;;;;5026024;28;20503;-61
2022/06/16 01:49:00;;;;;;;10.40;5.15;;;26.60;65.90;;;;;;5009656;28;20345;-61
2022/06/16 01:51:36;;;;;;;7.97;5.35;;;26.50;66.00;;;;;;5024570;28;21056;-62
2022/06/16 01:54:24;;;;;;;10.85;4.88;;;26.50;66.10;;;;;;5024817;28;20021;-62
2022/06/16 01:57:15;;;;;;;12.52;5.10;;;26.50;66.10;;;;;;5027034;28;20380;-62
2022/06/16 01:59:43;;;;;;;10.48;5.18;;;26.40;65.90;;;;;;5015049;28;20029;-62
2022/06/16 02:02:11;;;;;;;10.00;4.72;;;26.40;65.90;;;;;;5026092;28;20124;-62
2022/06/16 02:04:43;;;;;;;12.55;4.97;;;26.40;66.00;;;;;;5021494;28;20040;-63
2022/06/16 02:07:13;;;;;;;9.65;4.45;;;26.40;66.00;;;;;;5023714;28;20982;-61
2022/06/16 02:09:41;;;;;;;7.95;4.45;;;26.40;66.60;;;;;;5023631;28;20037;-62
2022/06/16 02:12:10;;;;;;;8.05;4.80;;;26.40;65.90;;;;;;5010326;28;20025;-62
2022/06/16 02:14:40;;;;;;;12.23;4.50;;;26.40;65.90;;;;;;5024540;28;20094;-62
2022/06/16 02:17:06;;;;;;;12.60;4.65;;;26.30;66.00;;;;;;5026177;28;20025;-62
2022/06/16 02:19:32;;;;;;;8.52;4.70;;;26.40;66.00;;;;;;5025089;28;20118;-61
2022/06/16 02:21:57;;;;;;;10.88;4.95;;;26.30;65.90;;;;;;5045225;28;20480;-61
2022/06/16 02:24:25;;;;;;;9.30;4.57;;;26.30;66.00;;;;;;5023658;28;20037;-62
2022/06/16 02:26:53;;;;;;;9.20;4.28;;;26.30;66.10;;;;;;5023766;28;20436;-61
2022/06/16 02:29:20;;;;;;;8.40;4.30;;;26.20;66.00;;;;;;5024636;28;20048;-61
2022/06/16 02:31:52;;;;;;;11.18;4.60;;;26.20;66.10;;;;;;5044468;28;20025;-64
2022/06/16 02:34:50;;;;;;;11.10;4.55;;;26.20;66.40;;;;;;5009859;28;20064;-62
2022/06/16 02:37:19;;;;;;;9.80;4.30;;;26.20;67.20;;;;;;5043322;28;20362;-61
2022/06/16 02:40:06;;;;;;;12.70;4.30;;;26.10;66.90;;;;;;5041391;28;20493;-62
2022/06/16 02:42:46;;;;;;;13.05;4.30;;;26.10;66.90;;;;;;5024459;28;20049;-61
2022/06/16 02:45:15;;;;;;;7.20;4.25;;;26.00;66.80;;;;;;5009128;28;20029;-61
2022/06/16 02:48:07;;;;;;;9.50;4.30;;;26.00;67.20;;;;;;5044624;28;20086;-61
2022/06/16 02:50:50;;;;;;;7.60;4.10;;;26.00;67.40;;;;;;5007028;28;20596;-62
2022/06/16 02:53:18;;;;;;;8.10;4.40;;;26.00;67.70;;;;;;5023525;28;20128;-61
2022/06/16 02:55:46;;;;;;;7.63;4.20;;;25.90;68.00;;;;;;5040285;28;20049;-61
2022/06/16 02:58:14;;;;;;;10.95;5.00;;;25.90;68.30;;;;;;5024801;28;20404;-61
2022/06/16 03:00:42;;;;;;;7.60;4.13;;;25.80;68.40;;;;;;5008013;28;20056;-61
2022/06/16 03:03:25;;;;;;;9.45;4.53;;;25.80;68.70;;;;;;5026105;28;20043;-61
2022/06/16 03:05:52;;;;;;;9.60;4.53;;;25.80;68.90;;;;;;5005029;28;20826;-61
2022/06/16 03:08:18;;;;;;;9.07;4.63;;;25.70;69.10;;;;;;5023418;28;20139;-61
2022/06/16 03:10:53;;;;;;;8.65;4.47;;;25.70;69.30;;;;;;5023197;28;20025;-61
2022/06/16 03:13:22;;;;;;;11.52;3.97;;;25.70;69.50;;;;;;5043682;28;20025;-61
2022/06/16 03:15:49;;;;;;;11.68;4.20;;;25.70;69.80;;;;;;5026160;28;20414;-61
2022/06/16 03:18:14;;;;;;;8.77;4.32;;;25.70;70.00;;;;;;5024896;28;20029;-61
2022/06/16 03:20:40;;;;;;;8.85;4.30;;;25.70;69.90;;;;;;5006997;28;20354;-60
2022/06/16 03:23:05;;;;;;;8.18;3.80;;;25.60;69.80;;;;;;5024352;28;20430;-61
2022/06/16 03:25:31;;;;;;;9.15;4.20;;;25.60;70.00;;;;;;5023068;28;20037;-61
2022/06/16 03:27:58;;;;;;;11.07;4.88;;;25.60;70.30;;;;;;5024406;28;20025;-60
2022/06/16 03:30:24;;;;;;;9.05;4.15;;;25.60;70.50;;;;;;5024966;28;20031;-60
2022/06/16 03:32:49;;;;;;;7.57;4.13;;;25.60;70.80;;;;;;5024466;28;20041;-61
2022/06/16 03:35:15;;;;;;;7.38;3.90;;;25.50;70.90;;;;;;5040502;28;20041;-61
2022/06/16 03:37:41;;;;;;;9.50;4.22;;;25.50;71.10;;;;;;5042692;28;20111;-61
2022/06/16 03:40:13;;;;;;;9.95;3.70;;;25.50;71.20;;;;;;5041867;28;20052;-60
2022/06/16 03:42:39;;;;;;;12.85;4.00;;;25.50;71.30;;;;;;5025522;28;20043;-61
2022/06/16 03:45:04;;;;;;;13.85;4.57;;;25.50;71.40;;;;;;5022886;28;20037;-60
2022/06/16 03:47:30;;;;;;;8.65;3.65;;;25.40;71.50;;;;;;5041936;28;20041;-61
2022/06/16 03:49:55;;;;;;;10.93;4.25;;;25.40;71.60;;;;;;5023377;28;20033;-61
2022/06/16 03:52:21;;;;;;;6.60;3.95;;;25.40;71.70;;;;;;5043928;28;20029;-61
2022/06/16 03:54:46;;;;;;;8.65;3.72;;;25.40;71.90;;;;;;5024558;28;20110;-60
2022/06/16 03:57:12;;;;;;;7.80;4.05;;;25.40;72.00;;;;;;5023201;28;20048;-60
2022/06/16 03:59:37;;;;;;;8.30;3.53;;;25.40;72.20;;;;;;5040933;28;20175;-61
2022/06/16 04:02:03;;;;;;;9.40;3.95;;;25.40;72.30;;;;;;5041839;28;20055;-61
2022/06/16 04:04:29;;;;;;;8.07;4.00;;;25.40;72.30;;;;;;5041638;28;20880;-61
2022/06/16 04:06:54;;;;;;;7.78;3.80;;;25.30;72.30;;;;;;5024327;28;20114;-61
2022/06/16 04:09:20;;;;;;;10.93;4.28;;;25.30;72.50;;;;;;5041504;28;20040;-61
2022/06/16 04:11:45;;;;;;;6.38;3.80;;;25.30;72.60;;;;;;5023084;28;20340;-61
2022/06/16 04:14:12;;;;;;;7.85;4.00;;;25.30;72.80;;;;;;5039354;28;20814;-62
2022/06/16 04:16:46;;;;;;;8.93;3.63;;;25.30;72.90;;;;;;5023375;28;20083;-61
2022/06/16 04:19:13;;;;;;;6.93;3.95;;;25.20;73.00;;;;;;5040816;28;20024;-61
2022/06/16 04:21:39;;;;;;;6.32;3.83;;;25.20;73.10;;;;;;5024290;28;20041;-61
2022/06/16 04:24:05;;;;;;;8.48;4.25;;;25.20;73.20;;;;;;5021321;28;20029;-61
2022/06/16 04:26:33;;;;;;;7.65;4.45;;;25.20;73.10;;;;;;5037755;28;20090;-61
2022/06/16 04:28:59;;;;;;;11.60;5.20;;;25.20;73.10;;;;;;5020400;28;20040;-61
2022/06/16 04:31:24;;;;;;;7.72;4.47;;;25.20;73.20;;;;;;5024639;28;20029;-60
2022/06/16 04:33:50;;;;;;;11.20;4.70;;;25.20;73.20;;;;;;5023650;28;20157;-60
2022/06/16 04:36:16;;;;;;;9.73;4.63;;;25.10;73.30;;;;;;5040889;28;20128;-61
2022/06/16 04:38:41;;;;;;;8.85;4.88;;;25.10;73.60;;;;;;5006798;28;20187;-60
2022/06/16 04:41:07;;;;;;;8.35;4.30;;;25.10;73.60;;;;;;5021835;28;20506;-60
2022/06/16 04:43:33;;;;;;;13.05;4.53;;;25.10;73.70;;;;;;5042177;28;20049;-61
2022/06/16 04:45:58;;;;;;;10.95;4.90;;;25.10;73.90;;;;;;5023864;28;20112;-61
2022/06/16 04:48:24;;;;;;;14.55;4.32;;;25.10;73.90;;;;;;5008000;28;20559;-61
2022/06/16 04:50:50;;;;;;;9.25;4.65;;;25.10;74.30;;;;;;5019880;28;20041;-61
2022/06/16 04:53:15;;;;;;;7.35;4.35;;;25.10;74.60;;;;;;5039814;28;20116;-61
2022/06/16 04:55:41;;;;;;;12.65;4.18;;;25.00;74.80;;;;;;5021372;28;20029;-61
2022/06/16 04:58:06;;;;;;;41.03;7.35;;;25.00;74.70;;;;;;5024240;28;20017;-61
2022/06/16 05:00:32;;;;;;;31.45;7.80;;;25.10;74.90;;;;;;5042016;28;20025;-61
2022/06/16 05:02:58;;;;;;;24.90;6.25;;;25.10;74.80;;;;;;5023896;28;20021;-61
2022/06/16 05:05:23;;;;;;;13.00;5.38;;;25.10;74.70;;;;;;5037005;28;20166;-60
2022/06/16 05:07:49;;;;;;;21.10;5.70;;;25.10;74.50;;;;;;5018908;28;20112;-60
2022/06/16 05:10:15;;;;;;;18.50;5.65;;;25.10;74.50;;;;;;5040386;28;20392;-61
2022/06/16 05:12:40;;;;;;;21.60;5.65;;;25.10;74.50;;;;;;5040371;28;20388;-61
2022/06/16 05:15:06;;;;;;;30.00;5.88;;;25.10;74.60;;;;;;5021761;28;20077;-61
2022/06/16 05:17:32;;;;;;;17.80;5.18;;;25.00;74.50;;;;;;5023032;28;20029;-61
2022/06/16 05:19:57;;;;;;;31.08;5.80;;;25.00;74.50;;;;;;5041654;28;20132;-61
2022/06/16 05:22:24;;;;;;;15.68;5.07;;;25.00;74.60;;;;;;5027818;28;20029;-61
2022/06/16 05:24:49;;;;;;;14.52;4.85;;;25.00;74.90;;;;;;5044076;28;20052;-61
2022/06/16 05:27:15;;;;;;;19.83;5.00;;;25.00;74.60;;;;;;5021633;28;20524;-61
2022/06/16 05:29:41;;;;;;;31.23;5.68;;;25.00;74.70;;;;;;5042931;28;20041;-62
2022/06/16 05:32:08;;;;;;;23.08;5.80;;;25.00;74.90;;;;;;5007122;28;20048;-60
2022/06/16 05:34:35;;;;;;;17.23;5.25;;;25.00;74.70;;;;;;5042369;28;20544;-60
2022/06/16 05:37:01;;;;;;;16.45;4.93;;;25.00;74.80;;;;;;5025095;28;20623;-61
2022/06/16 05:39:26;;;;;;;19.55;5.05;;;24.90;74.90;;;;;;5024807;28;20037;-61
2022/06/16 05:41:52;;;;;;;21.13;4.65;;;24.90;75.10;;;;;;5025721;28;20055;-62
2022/06/16 05:44:18;;;;;;;20.38;5.45;;;24.90;75.20;;;;;;5025059;28;20552;-62
2022/06/16 05:46:43;;;;;;;16.15;4.75;;;25.00;75.10;;;;;;5026795;28;20623;-61
2022/06/16 05:49:12;;;;;;;18.63;4.70;;;24.90;75.10;;;;;;5027037;28;20473;-61
2022/06/16 05:51:38;;;;;;;15.55;4.80;;;25.00;75.80;;;;;;5028172;28;20021;-61
2022/06/16 05:54:03;;;;;;;14.50;4.70;;;25.00;75.50;;;;;;5023666;28;20056;-62
2022/06/16 05:56:29;;;;;;;14.98;4.95;;;25.00;76.00;;;;;;5008446;28;20029;-61
2022/06/16 05:58:55;;;;;;;16.38;4.95;;;24.90;75.40;;;;;;5009161;28;20029;-61
2022/06/16 06:01:20;;;;;;;12.88;4.22;;;24.90;74.90;;;;;;5045608;28;20051;-61
2022/06/16 06:03:46;;;;;;;14.52;4.10;;;25.00;74.90;;;;;;5018305;28;20400;-64
2022/06/16 06:06:11;;;;;;;18.95;4.57;;;25.00;75.40;;;;;;5038627;28;20059;-61
2022/06/16 06:17:10;;;;;;;10.98;4.53;;;25.00;75.80;;;;;;5024235;28;20124;-61
2022/06/16 06:19:35;;;;;;;11.25;4.18;;;25.00;76.50;;;;;;5003259;28;20034;-63
2022/06/16 06:22:09;;;;;;;14.63;4.47;;;25.00;76.50;;;;;;5039859;28;20511;-66
2022/06/16 06:24:37;;;;;;;19.20;4.28;;;25.00;76.60;;;;;;5004703;28;20051;-62
2022/06/16 06:27:05;;;;;;;17.48;4.10;;;25.10;76.50;;;;;;5041531;28;20017;-61
2022/06/16 06:29:30;;;;;;;12.27;4.10;;;25.00;76.80;;;;;;5021872;28;20392;-65
2022/06/16 06:31:57;;;;;;;14.30;4.22;;;25.10;76.90;;;;;;5025693;28;20036;-64
2022/06/16 06:34:23;;;;;;;18.10;4.40;;;25.10;78.50;;;;;;5024210;28;20421;-63
2022/06/16 06:36:49;;;;;;;16.27;4.68;;;25.10;78.20;;;;;;5005852;28;20052;-65
2022/06/16 06:39:14;;;;;;;18.23;4.93;;;25.10;79.00;;;;;;5025373;28;20037;-63
2022/06/16 06:41:40;;;;;;;13.57;4.60;;;25.10;79.40;;;;;;5002247;28;20068;-64
2022/06/16 06:44:05;;;;;;;17.45;4.43;;;25.10;79.10;;;;;;5018655;28;20071;-63
2022/06/16 06:46:31;;;;;;;15.40;4.20;;;25.10;79.00;;;;;;5039154;28;20092;-61
2022/06/16 06:48:56;;;;;;;31.42;5.13;;;25.00;79.10;;;;;;5038892;28;20044;-63
2022/06/16 06:51:22;;;;;;;18.88;4.97;;;25.10;80.00;;;;;;5040439;28;20421;-63
2022/06/16 06:53:47;;;;;;;23.80;4.90;;;25.00;80.40;;;;;;5035660;28;20206;-63
2022/06/16 06:56:13;;;;;;;18.48;4.60;;;25.10;80.60;;;;;;5039908;28;20021;-63
2022/06/16 06:58:39;;;;;;;28.33;5.22;;;25.00;80.00;;;;;;5022063;28;20623;-63
2022/06/16 07:01:06;;;;;;;26.80;5.40;;;25.00;80.40;;;;;;5017146;28;20029;-63
2022/06/16 07:03:32;;;;;;;21.65;4.95;;;25.00;80.00;;;;;;5031088;28;20051;-62
2022/06/16 07:05:59;;;;;;;60.90;7.47;;;25.00;80.30;;;;;;5030447;28;20090;-64
2022/06/16 07:08:24;;;;;;;17.92;4.85;;;25.10;80.30;;;;;;5018645;28;20127;-62
2022/06/16 07:10:50;;;;;;;28.10;5.72;;;25.10;80.00;;;;;;5021617;28;20505;-63
2022/06/16 07:13:15;;;;;;;22.77;5.80;;;25.10;81.90;;;;;;5039303;28;20035;-63
2022/06/16 07:15:41;;;;;;;39.33;6.53;;;25.10;81.40;;;;;;5037679;28;20041;-63
2022/06/16 07:18:07;;;;;;;40.78;7.35;;;25.10;81.20;;;;;;5022875;28;20033;-63
2022/06/16 07:20:33;;;;;;;41.72;7.03;;;25.10;81.40;;;;;;5035941;28;20039;-63
2022/06/16 07:22:59;;;;;;;40.28;6.80;;;25.10;81.60;;;;;;5006643;28;20037;-63
2022/06/16 07:25:24;;;;;;;43.38;7.20;;;25.10;81.00;;;;;;5017320;28;20123;-62
2022/06/16 07:27:50;;;;;;;35.30;6.38;;;25.10;81.00;;;;;;5038713;28;20033;-62
2022/06/16 07:30:17;;;;;;;34.88;7.00;;;25.10;81.60;;;;;;5040393;28;20048;-62
2022/06/16 07:32:43;;;;;;;37.40;6.47;;;25.10;81.90;;;;;;5021847;28;20025;-63
2022/06/16 07:35:10;;;;;;;48.65;7.68;;;25.10;80.90;;;;;;5022022;28;20341;-63
2022/06/16 07:37:36;;;;;;;51.15;8.63;;;25.10;81.70;;;;;;4999862;28;20037;-63
2022/06/16 07:40:02;;;;;;;46.67;8.27;;;25.10;82.00;;;;;;5014112;28;20045;-63
2022/06/16 07:42:28;;;;;;;40.72;7.13;;;25.10;82.80;;;;;;5022846;28;20041;-63
2022/06/16 07:44:54;;;;;;;70.93;8.73;;;25.20;83.10;;;;;;5018563;28;20079;-63
2022/06/16 07:47:20;;;;;;;45.67;7.68;;;25.10;83.00;;;;;;5019520;28;20025;-63
2022/06/16 07:49:48;;;;;;;45.97;8.15;;;25.20;83.40;;;;;;5012020;28;20043;-62
2022/06/16 07:52:14;;;;;;;67.22;8.63;;;25.00;83.30;;;;;;5011546;28;20076;-64
2022/06/16 07:54:40;;;;;;;62.55;9.02;;;25.20;83.10;;;;;;4977290;28;20117;-61
2022/06/16 07:57:05;;;;;;;71.68;8.90;;;25.20;83.00;;;;;;5009671;28;20590;-61
2022/06/16 07:59:31;;;;;;;56.47;8.43;;;25.20;83.10;;;;;;5013409;28;20413;-61
2022/06/16 08:01:56;;;;;;;50.03;8.23;;;25.30;82.80;;;;;;5007587;28;21003;-62
2022/06/16 08:04:22;;;;;;;52.83;8.63;;;25.30;82.70;;;;;;5011509;28;20048;-61
2022/06/16 08:06:47;;;;;;;49.88;8.27;;;25.30;82.50;;;;;;5014808;28;20048;-61
2022/06/16 08:09:13;;;;;;;45.35;8.27;;;25.50;82.40;;;;;;5015117;28;20030;-59
2022/06/16 08:14:23;;;;;;;49.65;7.68;;;25.40;81.90;;;;;;5013631;28;20041;-61
2022/06/16 08:16:48;;;;;;;55.30;8.60;;;25.40;81.80;;;;;;5013322;28;20358;-62
2022/06/16 08:19:14;;;;;;;50.80;8.15;;;25.40;81.60;;;;;;5000180;28;20033;-61
2022/06/16 08:21:39;;;;;;;42.65;7.90;;;25.40;81.30;;;;;;5012956;28;20117;-62
2022/06/16 08:24:06;;;;;;;60.58;9.38;;;25.40;82.00;;;;;;5011387;28;20159;-62
2022/06/16 08:26:31;;;;;;;43.65;7.30;;;25.40;80.90;;;;;;5008738;28;20045;-62
2022/06/16 08:28:57;;;;;;;56.45;8.13;;;25.40;81.40;;;;;;4988901;28;20108;-62
2022/06/16 08:31:23;;;;;;;54.90;8.45;;;25.40;80.70;;;;;;4991165;28;20041;-62
2022/06/16 08:33:49;;;;;;;51.92;8.90;;;25.50;80.60;;;;;;5014030;28;20038;-61
2022/06/16 08:36:14;;;;;;;42.85;8.10;;;25.50;80.50;;;;;;5010983;28;20666;-61
2022/06/16 08:38:40;;;;;;;50.30;8.75;;;25.50;80.60;;;;;;5009567;28;20029;-61
2022/06/16 08:41:12;;;;;;;72.22;10.32;;;25.50;80.70;;;;;;5009562;28;20496;-62
2022/06/16 08:43:58;;;;;;;60.25;10.05;;;25.50;80.60;;;;;;5012951;28;20120;-61
2022/06/16 08:46:27;;;;;;;63.13;9.13;;;25.50;80.50;;;;;;5012906;28;20405;-61
2022/06/16 08:48:58;;;;;;;62.28;8.65;;;25.60;80.60;;;;;;5012686;28;20056;-61
2022/06/16 08:51:47;;;;;;;48.65;10.40;;;25.60;80.80;;;;;;5003707;28;20035;-61
2022/06/16 08:54:28;;;;;;;44.58;8.15;;;25.60;80.90;;;;;;5016768;28;20214;-62
2022/06/16 08:57:13;;;;;;;35.58;8.00;;;25.60;80.80;;;;;;5010781;28;20048;-61
2022/06/16 08:59:47;;;;;;;49.25;7.75;;;25.60;80.70;;;;;;5018483;28;20207;-61
2022/06/16 09:02:31;;;;;;;41.08;7.72;;;25.70;80.60;;;;;;5012482;28;20036;-61
2022/06/16 09:05:02;;;;;;;55.45;9.18;;;25.70;80.50;;;;;;5016970;28;20033;-61
2022/06/16 09:07:45;;;;;;;62.63;10.32;;;25.80;80.50;;;;;;4997670;28;20079;-61
2022/06/16 09:10:23;;;;;;;63.67;10.57;;;25.80;80.30;;;;;;5010530;28;20040;-65
2022/06/16 09:13:11;;;;;;;56.53;9.98;;;25.70;80.40;;;;;;5018185;28;20420;-61
2022/06/16 09:15:55;;;;;;;59.10;10.02;;;25.80;80.50;;;;;;5013240;28;20390;-61
2022/06/16 09:18:47;;;;;;;48.70;10.18;;;25.80;80.30;;;;;;5021736;28;20048;-61
2022/06/16 09:21:46;;;;;;;40.85;9.40;;;25.80;80.10;;;;;;5016762;28;20123;-61
2022/06/16 09:24:36;;;;;;;58.80;9.40;;;25.80;80.30;;;;;;4996143;28;20049;-61
2022/06/16 09:27:12;;;;;;;40.00;8.25;;;25.80;80.20;;;;;;5014453;28;20056;-61
2022/06/16 09:29:47;;;;;;;45.72;8.15;;;25.90;80.00;;;;;;5005339;28;20033;-61
2022/06/16 09:32:32;;;;;;;35.88;8.45;;;25.90;79.70;;;;;;5022042;28;20033;-62
2022/06/16 09:35:19;;;;;;;36.00;8.23;;;25.90;80.00;;;;;;5018690;28;20056;-61
2022/06/16 09:38:02;;;;;;;51.50;8.88;;;25.90;80.00;;;;;;5016901;28;20077;-61
2022/06/16 09:40:44;;;;;;;58.38;9.20;;;26.00;79.60;;;;;;4993617;28;20103;-61
2022/06/16 09:43:12;;;;;;;45.95;7.63;;;26.00;79.20;;;;;;4994543;28;20523;-61
2022/06/16 09:45:44;;;;;;;45.85;8.50;;;26.00;79.20;;;;;;5016330;28;20125;-61
2022/06/16 09:48:20;;;;;;;45.45;8.45;;;26.10;78.70;;;;;;5018683;28;20033;-61
2022/06/16 09:50:55;;;;;;;57.70;9.23;;;26.10;78.80;;;;;;5003280;28;20064;-61
2022/06/16 09:53:24;;;;;;;55.65;8.95;;;26.20;78.40;;;;;;5015631;28;20021;-62
2022/06/16 09:55:59;;;;;;;49.05;8.27;;;26.20;78.00;;;;;;5012150;28;20037;-61
2022/06/16 09:58:38;;;;;;;53.25;9.80;;;26.20;77.80;;;;;;5000674;28;20025;-61
2022/06/16 10:01:09;;;;;;;39.33;8.27;;;26.30;77.10;;;;;;5001929;28;20049;-62
2022/06/16 10:03:52;;;;;;;53.63;8.25;;;26.30;75.80;;;;;;4992627;28;20049;-61
2022/06/16 10:06:36;;;;;;;48.85;7.40;;;26.40;74.90;;;;;;5009076;28;20041;-62
2022/06/16 10:09:18;;;;;;;37.15;7.03;;;26.40;74.70;;;;;;5004393;28;20045;-61
2022/06/16 10:11:50;;;;;;;44.42;8.52;;;26.40;74.00;;;;;;4992015;28;20108;-62
2022/06/16 10:14:41;;;;;;;48.33;8.25;;;26.50;73.60;;;;;;5017614;28;20186;-62
2022/06/16 10:17:08;;;;;;;37.78;7.55;;;26.40;73.30;;;;;;5011671;28;20457;-62
2022/06/16 10:19:40;;;;;;;44.22;7.60;;;26.60;72.70;;;;;;4996418;28;20072;-61
2022/06/16 10:22:06;;;;;;;44.08;7.30;;;26.60;72.60;;;;;;5007548;28;20057;-61
2022/06/16 10:24:47;;;;;;;47.17;7.68;;;26.60;72.10;;;;;;4995650;28;20032;-62
2022/06/16 10:27:15;;;;;;;36.10;6.15;;;26.60;72.00;;;;;;4983705;28;20156;-61
2022/06/16 10:29:50;;;;;;;46.63;7.65;;;26.60;71.60;;;;;;5005919;28;20041;-61
2022/06/16 10:32:16;;;;;;;32.35;6.10;;;26.70;71.70;;;;;;4992161;28;20037;-61
2022/06/16 10:34:41;;;;;;;32.17;6.75;;;26.80;71.90;;;;;;5000498;28;20044;-61
2022/06/16 10:37:16;;;;;;;31.98;6.50;;;26.80;71.60;;;;;;5011227;28;21495;-61
2022/06/16 10:39:44;;;;;;;34.15;6.50;;;26.90;71.30;;;;;;4995359;28;20056;-62
2022/06/16 10:42:40;;;;;;;49.40;7.05;;;26.90;71.20;;;;;;5010183;28;21951;-62
2022/06/16 10:45:10;;;;;;;58.05;8.82;;;27.00;70.40;;;;;;5005742;28;20488;-65
2022/06/16 10:47:49;;;;;;;88.53;12.43;;;27.10;69.60;;;;;;4994956;28;20383;-61
2022/06/16 10:50:30;;;;;;;42.20;6.72;;;27.10;69.70;;;;;;4999825;28;20099;-62
2022/06/16 10:53:24;;;;;;;47.55;6.57;;;27.20;68.20;;;;;;4989226;28;20037;-62
2022/06/16 10:55:51;;;;;;;34.90;5.82;;;27.10;66.20;;;;;;5012900;28;20037;-62
2022/06/16 10:58:23;;;;;;;29.40;6.03;;;27.20;64.70;;;;;;5000191;28;20033;-62
2022/06/16 11:01:15;;;;;;;32.72;5.65;;;27.30;64.30;;;;;;5018706;28;20529;-62
2022/06/16 11:03:44;;;;;;;18.27;4.65;;;27.30;61.20;;;;;;5012832;28;20029;-63
2022/06/16 11:06:14;;;;;;;36.45;6.03;;;27.30;59.90;;;;;;5012763;28;20049;-62
2022/06/16 11:08:46;;;;;;;33.78;5.60;;;27.40;60.10;;;;;;5013332;28;20541;-60
2022/06/16 11:11:12;;;;;;;33.15;5.30;;;27.50;60.10;;;;;;4986297;28;20030;-62
2022/06/16 11:13:46;;;;;;;52.55;7.03;;;27.60;60.00;;;;;;4983333;28;20028;-62
2022/06/16 11:16:21;;;;;;;36.30;5.85;;;27.80;59.80;;;;;;5014821;28;20088;-62
2022/06/16 11:18:46;;;;;;;39.28;5.25;;;27.90;59.70;;;;;;4998623;28;20013;-63
2022/06/16 11:21:23;;;;;;;22.48;4.35;;;28.00;59.40;;;;;;4988721;28;20065;-62
2022/06/16 11:23:51;;;;;;;27.63;4.93;;;28.10;58.90;;;;;;5018774;28;20504;-62
2022/06/16 11:26:16;;;;;;;30.13;4.88;;;28.20;58.50;;;;;;5015800;28;20022;-62
2022/06/16 11:28:44;;;;;;;24.98;4.28;;;28.20;58.50;;;;;;5017690;28;20060;-62
2022/06/16 11:31:14;;;;;;;36.72;5.55;;;28.30;58.50;;;;;;5017230;28;20101;-62
2022/06/16 11:37:04;;;;;;;28.35;5.38;;;28.50;58.40;;;;;;5012255;28;20084;-62
2022/06/16 11:40:04;;;;;;;24.80;4.10;;;28.60;58.60;;;;;;5015474;28;20029;-62
2022/06/16 11:42:41;;;;;;;22.33;4.32;;;28.70;57.60;;;;;;5016080;28;20682;-61
2022/06/16 11:45:15;;;;;;;24.85;4.85;;;28.80;57.30;;;;;;5009525;28;20028;-62
2022/06/16 11:48:20;;;;;;;33.03;4.72;;;28.90;57.20;;;;;;5012645;28;20084;-62
2022/06/16 11:50:56;;;;;;;18.20;4.57;;;29.00;57.00;;;;;;5022125;28;20055;-62
2022/06/16 11:53:33;;;;;;;21.70;3.90;;;29.00;56.90;;;;;;5002043;28;20055;-62
2022/06/16 11:56:22;;;;;;;29.27;4.32;;;29.20;56.80;;;;;;4997225;28;20094;-62
2022/06/16 11:59:16;;;;;;;21.10;4.95;;;29.20;56.70;;;;;;5011413;28;20124;-62
2022/06/16 12:01:49;;;;;;;24.17;3.88;;;29.30;56.60;;;;;;5006455;28;20074;-62
2022/06/16 12:04:35;;;;;;;23.50;4.05;;;29.30;56.20;;;;;;4999517;28;20087;-63
2022/06/16 12:07:23;;;;;;;50.65;6.68;;;29.40;55.20;;;;;;5004231;28;20022;-62
2022/06/16 12:10:19;;;;;;;38.58;5.32;;;29.60;54.80;;;;;;5018322;28;20052;-62
2022/06/16 12:12:51;;;;;;;;;;;29.70;54.90;;;;;;5021243;28;20025;-62
2022/06/16 12:15:22;;;;;;;24.77;3.70;;;29.80;54.60;;;;;;5013691;28;20592;-62
2022/06/16 12:18:13;;;;;;;42.28;5.30;;;29.90;54.70;;;;;;5018468;28;21133;-62
2022/06/16 12:21:02;;;;;;;18.75;4.22;;;29.90;54.70;;;;;;5004163;28;20115;-62
2022/06/16 12:23:49;;;;;;;35.05;4.63;;;30.00;54.30;;;;;;4997797;28;20044;-62
2022/06/16 12:26:22;;;;;;;21.48;4.20;;;30.10;54.30;;;;;;5008652;28;20133;-62
2022/06/16 12:29:02;;;;;;;42.03;5.53;;;30.20;54.10;;;;;;5014456;28;20033;-62
2022/06/16 12:31:55;;;;;;;34.92;4.60;;;30.20;54.30;;;;;;5014066;28;20052;-62
2022/06/16 12:34:34;;;;;;;32.47;4.38;;;30.30;54.10;;;;;;5015894;28;20104;-63
2022/06/16 12:37:06;;;;;;;53.65;5.78;;;30.40;54.30;;;;;;5017471;28;20053;-62
2022/06/16 12:39:38;;;;;;;30.27;4.45;;;30.40;54.70;;;;;;5014442;28;20130;-62
2022/06/16 12:42:07;;;;;;;31.05;4.95;;;30.50;54.30;;;;;;5018334;28;20029;-62
2022/06/16 12:44:41;;;;;;;22.70;4.85;;;30.50;54.30;;;;;;4999528;28;20032;-62
2022/06/16 12:47:19;;;;;;;27.70;4.45;;;30.60;54.30;;;;;;5017318;28;20068;-62
2022/06/16 12:49:51;;;;;;;36.10;5.57;;;30.70;54.10;;;;;;5000790;28;20035;-62
2022/06/16 12:52:41;;;;;;;29.58;5.72;;;30.80;54.90;;;;;;5016772;28;20025;-62
2022/06/16 12:55:13;;;;;;;32.45;5.10;;;30.80;53.90;;;;;;5011608;28;20125;-62
2022/06/16 12:57:45;;;;;;;46.13;5.75;;;30.90;54.00;;;;;;5013077;28;20041;-62
2022/06/16 13:00:18;;;;;;;29.67;5.60;;;31.00;53.70;;;;;;5018272;28;20057;-65
2022/06/16 13:02:59;;;;;;;45.17;5.55;;;31.10;54.00;;;;;;5000346;28;20033;-62
2022/06/16 13:05:25;;;;;;;28.08;5.18;;;31.10;53.80;;;;;;5002825;28;20029;-62
2022/06/16 13:07:52;;;;;;;49.42;6.07;;;31.20;54.20;;;;;;5018445;28;20056;-62
2022/06/16 13:10:17;;;;;;;37.22;6.18;;;31.20;53.90;;;;;;5008508;28;20029;-63
2022/06/16 13:12:48;;;;;;;50.40;6.78;;;31.30;53.80;;;;;;4994566;28;21503;-62
2022/06/16 13:15:16;;;;;;;29.00;5.63;;;31.40;53.50;;;;;;4997280;28;20025;-62
2022/06/16 13:17:58;;;;;;;105.25;12.93;;;31.50;52.70;;;;;;5018013;28;20729;-63
2022/06/16 13:20:26;;;;;;;28.48;5.70;;;31.60;52.90;;;;;;5017297;28;20734;-62